sensor_id;sensor_type;location;lat;lon;timestamp;temperature;humidity
47384;DHT22;33129;52.232;5.192;2022-08-19T00:00:29;21.90;99.90
47384;DHT22;33129;52.232;5.192;2022-08-19T00:02:56;21.80;99.90
47384;DHT22;33129;52.232;5.192;2022-08-19T00:05:22;21.70;99.90
47384;DHT22;33129;52.232;5.192;2022-08-19T00:07:49;21.70;99.90
47384;DHT22;33129;52.232;5.192;2022-08-19T00:10:17;21.60;99.90
47384;DHT22;33129;52.232;5.192;2022-08-19T00:12:44;21.60;99.90
47384;DHT22;33129;52.232;5.192;2022-08-19T00:15:13;21.60;99.90
47384;DHT22;33129;52.232;5.192;2022-08-19T00:17:42;21.50;99.90
47384;DHT22;33129;52.232;5.192;2022-08-19T00:20:12;21.80;99.90
47384;DHT22;33129;52.232;5.192;2022-08-19T00:22:41;21.90;99.90
47384;DHT22;33129;52.232;5.192;2022-08-19T00:25:07;21.90;99.90
47384;DHT22;33129;52.232;5.192;2022-08-19T00:27:34;22.00;99.90
47384;DHT22;33129;52.232;5.192;2022-08-19T00:29:59;22.10;99.90
47384;DHT22;33129;52.232;5.192;2022-08-19T00:32:25;22.00;99.90
47384;DHT22;33129;52.232;5.192;2022-08-19T00:34:52;22.00;99.90
47384;DHT22;33129;52.232;5.192;2022-08-19T00:37:20;21.90;99.90
47384;DHT22;33129;52.232;5.192;2022-08-19T00:39:51;21.80;99.90
47384;DHT22;33129;52.232;5.192;2022-08-19T00:42:19;21.80;99.90
47384;DHT22;33129;52.232;5.192;2022-08-19T00:44:46;21.60;99.90
47384;DHT22;33129;52.232;5.192;2022-08-19T00:47:12;21.40;99.90
47384;DHT22;33129;52.232;5.192;2022-08-19T00:49:43;21.40;99.90
47384;DHT22;33129;52.232;5.192;2022-08-19T00:52:22;21.40;99.90
47384;DHT22;33129;52.232;5.192;2022-08-19T00:54:51;21.30;99.90
47384;DHT22;33129;52.232;5.192;2022-08-19T00:57:23;21.20;99.90
47384;DHT22;33129;52.232;5.192;2022-08-19T00:59:54;21.30;99.90
47384;DHT22;33129;52.232;5.192;2022-08-19T01:02:22;21.40;99.90
47384;DHT22;33129;52.232;5.192;2022-08-19T01:04:48;21.50;99.90
47384;DHT22;33129;52.232;5.192;2022-08-19T01:07:13;21.40;99.90
47384;DHT22;33129;52.232;5.192;2022-08-19T01:09:39;21.30;99.90
47384;DHT22;33129;52.232;5.192;2022-08-19T01:12:05;21.30;99.90
47384;DHT22;33129;52.232;5.192;2022-08-19T01:14:31;21.20;99.90
47384;DHT22;33129;52.232;5.192;2022-08-19T01:16:57;21.20;99.90
47384;DHT22;33129;52.232;5.192;2022-08-19T01:19:33;21.30;99.90
47384;DHT22;33129;52.232;5.192;2022-08-19T01:24:29;21.30;99.90
47384;DHT22;33129;52.232;5.192;2022-08-19T01:26:56;21.20;99.90
47384;DHT22;33129;52.232;5.192;2022-08-19T01:29:22;21.40;99.90
47384;DHT22;33129;52.232;5.192;2022-08-19T01:31:48;21.30;99.90
47384;DHT22;33129;52.232;5.192;2022-08-19T01:34:14;21.40;99.90
47384;DHT22;33129;52.232;5.192;2022-08-19T01:36:45;21.40;99.90
47384;DHT22;33129;52.232;5.192;2022-08-19T01:39:18;21.40;99.90
47384;DHT22;33129;52.232;5.192;2022-08-19T01:41:47;21.40;99.90
47384;DHT22;33129;52.232;5.192;2022-08-19T01:44:13;21.20;99.90
47384;DHT22;33129;52.232;5.192;2022-08-19T01:46:39;21.10;99.90
47384;DHT22;33129;52.232;5.192;2022-08-19T01:49:06;20.70;99.90
47384;DHT22;33129;52.232;5.192;2022-08-19T01:51:33;21.10;99.90
47384;DHT22;33129;52.232;5.192;2022-08-19T01:53:59;21.20;99.90
47384;DHT22;33129;52.232;5.192;2022-08-19T01:56:25;21.20;99.90
47384;DHT22;33129;52.232;5.192;2022-08-19T01:59:00;21.10;99.90
47384;DHT22;33129;52.232;5.192;2022-08-19T02:01:28;21.00;99.90
47384;DHT22;33129;52.232;5.192;2022-08-19T02:03:57;20.90;99.90
47384;DHT22;33129;52.232;5.192;2022-08-19T02:06:24;20.80;99.90
47384;DHT22;33129;52.232;5.192;2022-08-19T02:08:49;20.70;99.90
47384;DHT22;33129;52.232;5.192;2022-08-19T02:11:24;20.60;99.90
47384;DHT22;33129;52.232;5.192;2022-08-19T02:13:56;20.70;99.90
47384;DHT22;33129;52.232;5.192;2022-08-19T02:16:22;20.90;99.90
47384;DHT22;33129;52.232;5.192;2022-08-19T02:18:48;20.80;99.90
47384;DHT22;33129;52.232;5.192;2022-08-19T02:21:18;20.90;99.90
47384;DHT22;33129;52.232;5.192;2022-08-19T02:23:46;21.10;99.90
47384;DHT22;33129;52.232;5.192;2022-08-19T02:26:12;21.10;99.90
47384;DHT22;33129;52.232;5.192;2022-08-19T02:28:39;21.20;99.90
47384;DHT22;33129;52.232;5.192;2022-08-19T02:31:18;21.20;99.90
47384;DHT22;33129;52.232;5.192;2022-08-19T02:33:46;21.10;99.90
47384;DHT22;33129;52.232;5.192;2022-08-19T02:36:14;21.10;99.90
47384;DHT22;33129;52.232;5.192;2022-08-19T02:38:41;21.00;99.90
47384;DHT22;33129;52.232;5.192;2022-08-19T02:41:12;21.00;99.90
47384;DHT22;33129;52.232;5.192;2022-08-19T02:43:42;20.90;99.90
47384;DHT22;33129;52.232;5.192;2022-08-19T02:46:13;20.90;99.90
47384;DHT22;33129;52.232;5.192;2022-08-19T02:48:42;21.00;99.90
47384;DHT22;33129;52.232;5.192;2022-08-19T02:51:09;21.00;99.90
47384;DHT22;33129;52.232;5.192;2022-08-19T02:53:41;20.70;99.90
47384;DHT22;33129;52.232;5.192;2022-08-19T02:56:07;20.60;99.90
47384;DHT22;33129;52.232;5.192;2022-08-19T02:58:33;20.30;99.90
47384;DHT22;33129;52.232;5.192;2022-08-19T03:00:59;20.50;99.90
47384;DHT22;33129;52.232;5.192;2022-08-19T03:03:25;20.30;99.90
47384;DHT22;33129;52.232;5.192;2022-08-19T03:05:50;20.20;99.90
47384;DHT22;33129;52.232;5.192;2022-08-19T03:08:16;20.40;99.90
47384;DHT22;33129;52.232;5.192;2022-08-19T03:10:46;19.90;99.90
47384;DHT22;33129;52.232;5.192;2022-08-19T03:13:14;20.40;99.90
47384;DHT22;33129;52.232;5.192;2022-08-19T03:15:43;20.00;99.90
47384;DHT22;33129;52.232;5.192;2022-08-19T03:18:10;20.30;99.90
47384;DHT22;33129;52.232;5.192;2022-08-19T03:20:44;20.20;99.90
47384;DHT22;33129;52.232;5.192;2022-08-19T03:23:12;19.90;99.90
47384;DHT22;33129;52.232;5.192;2022-08-19T03:25:40;20.10;99.90
47384;DHT22;33129;52.232;5.192;2022-08-19T03:28:12;20.00;99.90
47384;DHT22;33129;52.232;5.192;2022-08-19T03:30:38;19.70;99.90
47384;DHT22;33129;52.232;5.192;2022-08-19T03:33:09;19.90;99.90
47384;DHT22;33129;52.232;5.192;2022-08-19T03:35:37;19.80;99.90
47384;DHT22;33129;52.232;5.192;2022-08-19T03:38:06;19.80;99.90
47384;DHT22;33129;52.232;5.192;2022-08-19T03:40:36;19.60;99.90
47384;DHT22;33129;52.232;5.192;2022-08-19T03:43:02;19.70;99.90
47384;DHT22;33129;52.232;5.192;2022-08-19T03:45:28;20.00;99.90
47384;DHT22;33129;52.232;5.192;2022-08-19T03:47:54;19.90;99.90
47384;DHT22;33129;52.232;5.192;2022-08-19T03:50:20;19.40;99.90
47384;DHT22;33129;52.232;5.192;2022-08-19T03:52:50;19.80;99.90
47384;DHT22;33129;52.232;5.192;2022-08-19T03:55:17;20.00;99.90
47384;DHT22;33129;52.232;5.192;2022-08-19T03:57:44;20.00;99.90
47384;DHT22;33129;52.232;5.192;2022-08-19T04:00:11;20.00;99.90
47384;DHT22;33129;52.232;5.192;2022-08-19T04:02:38;20.20;99.90
47384;DHT22;33129;52.232;5.192;2022-08-19T04:05:04;20.10;99.90
47384;DHT22;33129;52.232;5.192;2022-08-19T04:07:30;20.10;99.90
47384;DHT22;33129;52.232;5.192;2022-08-19T04:09:56;20.00;99.90
47384;DHT22;33129;52.232;5.192;2022-08-19T04:12:21;19.90;99.90
47384;DHT22;33129;52.232;5.192;2022-08-19T04:14:47;20.20;99.90
47384;DHT22;33129;52.232;5.192;2022-08-19T04:17:13;19.90;99.90
47384;DHT22;33129;52.232;5.192;2022-08-19T04:19:40;20.00;99.90
47384;DHT22;33129;52.232;5.192;2022-08-19T04:22:07;19.70;99.90
47384;DHT22;33129;52.232;5.192;2022-08-19T04:24:34;20.00;99.90
47384;DHT22;33129;52.232;5.192;2022-08-19T04:27:01;19.70;99.90
47384;DHT22;33129;52.232;5.192;2022-08-19T04:29:28;19.80;99.90
47384;DHT22;33129;52.232;5.192;2022-08-19T04:31:55;19.80;99.90
47384;DHT22;33129;52.232;5.192;2022-08-19T04:34:23;19.80;99.90
47384;DHT22;33129;52.232;5.192;2022-08-19T04:36:51;20.00;99.90
47384;DHT22;33129;52.232;5.192;2022-08-19T04:39:22;19.70;99.90
47384;DHT22;33129;52.232;5.192;2022-08-19T04:42:12;19.50;99.90
47384;DHT22;33129;52.232;5.192;2022-08-19T04:44:57;19.50;99.90
47384;DHT22;33129;52.232;5.192;2022-08-19T04:47:24;19.80;99.90
47384;DHT22;33129;52.232;5.192;2022-08-19T04:49:50;20.00;99.90
47384;DHT22;33129;52.232;5.192;2022-08-19T04:52:15;19.90;99.90
47384;DHT22;33129;52.232;5.192;2022-08-19T04:54:41;19.90;99.90
47384;DHT22;33129;52.232;5.192;2022-08-19T04:57:08;19.60;99.90
47384;DHT22;33129;52.232;5.192;2022-08-19T04:59:35;19.80;99.90
47384;DHT22;33129;52.232;5.192;2022-08-19T05:02:03;19.80;99.90
47384;DHT22;33129;52.232;5.192;2022-08-19T05:04:29;19.80;99.90
47384;DHT22;33129;52.232;5.192;2022-08-19T05:06:56;19.60;99.90
47384;DHT22;33129;52.232;5.192;2022-08-19T05:09:22;19.90;99.90
47384;DHT22;33129;52.232;5.192;2022-08-19T05:11:48;19.90;99.90
47384;DHT22;33129;52.232;5.192;2022-08-19T05:14:16;20.10;99.90
47384;DHT22;33129;52.232;5.192;2022-08-19T05:16:41;20.20;99.90
47384;DHT22;33129;52.232;5.192;2022-08-19T05:19:07;20.20;99.90
47384;DHT22;33129;52.232;5.192;2022-08-19T05:21:52;20.10;99.90
47384;DHT22;33129;52.232;5.192;2022-08-19T05:24:37;20.50;99.90
47384;DHT22;33129;52.232;5.192;2022-08-19T05:27:03;20.80;99.90
47384;DHT22;33129;52.232;5.192;2022-08-19T05:29:31;21.00;99.90
47384;DHT22;33129;52.232;5.192;2022-08-19T05:32:00;21.10;99.90
47384;DHT22;33129;52.232;5.192;2022-08-19T05:34:27;21.10;99.90
47384;DHT22;33129;52.232;5.192;2022-08-19T05:36:58;21.10;99.90
47384;DHT22;33129;52.232;5.192;2022-08-19T05:39:27;21.20;1.00
47384;DHT22;33129;52.232;5.192;2022-08-19T05:42:00;21.40;1.00
47384;DHT22;33129;52.232;5.192;2022-08-19T05:44:30;21.50;1.00
47384;DHT22;33129;52.232;5.192;2022-08-19T05:47:02;21.70;1.00
47384;DHT22;33129;52.232;5.192;2022-08-19T05:49:31;21.80;1.00
47384;DHT22;33129;52.232;5.192;2022-08-19T05:51:57;21.70;1.00
47384;DHT22;33129;52.232;5.192;2022-08-19T05:54:25;21.70;1.00
47384;DHT22;33129;52.232;5.192;2022-08-19T05:56:52;21.70;1.00
47384;DHT22;33129;52.232;5.192;2022-08-19T05:59:20;21.80;1.00
47384;DHT22;33129;52.232;5.192;2022-08-19T06:01:48;21.90;1.00
47384;DHT22;33129;52.232;5.192;2022-08-19T06:04:19;22.10;1.00
47384;DHT22;33129;52.232;5.192;2022-08-19T06:06:47;22.40;1.00
47384;DHT22;33129;52.232;5.192;2022-08-19T06:09:15;22.40;1.00
47384;DHT22;33129;52.232;5.192;2022-08-19T06:11:45;22.50;1.00
47384;DHT22;33129;52.232;5.192;2022-08-19T06:14:27;22.40;1.00
47384;DHT22;33129;52.232;5.192;2022-08-19T06:16:55;22.40;1.00
47384;DHT22;33129;52.232;5.192;2022-08-19T06:19:22;22.30;1.00
47384;DHT22;33129;52.232;5.192;2022-08-19T06:21:50;22.20;1.00
47384;DHT22;33129;52.232;5.192;2022-08-19T06:24:21;22.00;1.00
47384;DHT22;33129;52.232;5.192;2022-08-19T06:26:53;21.90;1.00
47384;DHT22;33129;52.232;5.192;2022-08-19T06:29:22;21.80;1.00
47384;DHT22;33129;52.232;5.192;2022-08-19T06:31:51;21.60;1.00
47384;DHT22;33129;52.232;5.192;2022-08-19T06:34:19;21.70;1.00
47384;DHT22;33129;52.232;5.192;2022-08-19T06:36:47;21.70;1.00
47384;DHT22;33129;52.232;5.192;2022-08-19T06:39:19;21.70;1.00
47384;DHT22;33129;52.232;5.192;2022-08-19T06:41:49;21.50;1.00
47384;DHT22;33129;52.232;5.192;2022-08-19T06:44:22;21.90;1.00
47384;DHT22;33129;52.232;5.192;2022-08-19T06:46:50;21.90;1.00
47384;DHT22;33129;52.232;5.192;2022-08-19T06:49:17;21.80;1.00
47384;DHT22;33129;52.232;5.192;2022-08-19T06:51:45;21.70;1.00
47384;DHT22;33129;52.232;5.192;2022-08-19T06:54:16;21.70;1.00
47384;DHT22;33129;52.232;5.192;2022-08-19T06:56:43;21.80;1.00
47384;DHT22;33129;52.232;5.192;2022-08-19T06:59:13;21.80;1.00
47384;DHT22;33129;52.232;5.192;2022-08-19T07:01:42;21.70;1.00
47384;DHT22;33129;52.232;5.192;2022-08-19T07:04:13;21.70;1.00
47384;DHT22;33129;52.232;5.192;2022-08-19T07:06:41;21.90;1.00
47384;DHT22;33129;52.232;5.192;2022-08-19T07:09:08;21.70;1.00
47384;DHT22;33129;52.232;5.192;2022-08-19T07:11:35;21.70;1.00
47384;DHT22;33129;52.232;5.192;2022-08-19T07:14:01;21.80;1.00
47384;DHT22;33129;52.232;5.192;2022-08-19T07:16:28;21.70;1.00
47384;DHT22;33129;52.232;5.192;2022-08-19T07:18:54;21.70;1.00
47384;DHT22;33129;52.232;5.192;2022-08-19T07:21:24;21.70;1.00
47384;DHT22;33129;52.232;5.192;2022-08-19T07:23:55;21.80;1.00
47384;DHT22;33129;52.232;5.192;2022-08-19T07:26:25;21.80;1.00
47384;DHT22;33129;52.232;5.192;2022-08-19T07:28:53;21.70;1.00
47384;DHT22;33129;52.232;5.192;2022-08-19T07:31:21;21.70;1.00
47384;DHT22;33129;52.232;5.192;2022-08-19T07:33:50;21.60;1.00
47384;DHT22;33129;52.232;5.192;2022-08-19T07:36:20;21.70;1.00
47384;DHT22;33129;52.232;5.192;2022-08-19T07:38:50;21.70;1.00
47384;DHT22;33129;52.232;5.192;2022-08-19T07:41:23;21.70;1.00
47384;DHT22;33129;52.232;5.192;2022-08-19T07:43:50;21.60;1.00
47384;DHT22;33129;52.232;5.192;2022-08-19T07:46:18;21.70;1.00
47384;DHT22;33129;52.232;5.192;2022-08-19T07:48:47;21.80;1.00
47384;DHT22;33129;52.232;5.192;2022-08-19T07:51:19;21.70;1.00
47384;DHT22;33129;52.232;5.192;2022-08-19T07:53:46;22.10;1.00
47384;DHT22;33129;52.232;5.192;2022-08-19T07:56:14;22.20;1.00
47384;DHT22;33129;52.232;5.192;2022-08-19T07:58:42;22.20;1.00
47384;DHT22;33129;52.232;5.192;2022-08-19T08:01:17;22.30;1.00
47384;DHT22;33129;52.232;5.192;2022-08-19T08:03:48;22.30;1.00
47384;DHT22;33129;52.232;5.192;2022-08-19T08:06:34;22.40;1.00
47384;DHT22;33129;52.232;5.192;2022-08-19T08:09:22;22.10;1.00
47384;DHT22;33129;52.232;5.192;2022-08-19T08:11:56;22.10;1.00
47384;DHT22;33129;52.232;5.192;2022-08-19T08:14:32;21.90;1.00
47384;DHT22;33129;52.232;5.192;2022-08-19T08:17:01;22.00;1.00
47384;DHT22;33129;52.232;5.192;2022-08-19T08:19:28;22.00;1.00
47384;DHT22;33129;52.232;5.192;2022-08-19T08:21:56;22.10;1.00
47384;DHT22;33129;52.232;5.192;2022-08-19T08:24:24;22.00;1.00
47384;DHT22;33129;52.232;5.192;2022-08-19T08:26:50;22.30;1.00
47384;DHT22;33129;52.232;5.192;2022-08-19T08:29:19;22.40;1.00
47384;DHT22;33129;52.232;5.192;2022-08-19T08:31:47;22.60;1.00
47384;DHT22;33129;52.232;5.192;2022-08-19T08:34:14;22.70;1.00
47384;DHT22;33129;52.232;5.192;2022-08-19T08:36:45;22.80;1.00
47384;DHT22;33129;52.232;5.192;2022-08-19T08:39:14;23.10;1.00
47384;DHT22;33129;52.232;5.192;2022-08-19T08:47:30;23.10;1.00
47384;DHT22;33129;52.232;5.192;2022-08-19T08:50:12;23.10;1.00
47384;DHT22;33129;52.232;5.192;2022-08-19T08:52:45;23.20;1.00
47384;DHT22;33129;52.232;5.192;2022-08-19T08:55:17;23.20;1.00
47384;DHT22;33129;52.232;5.192;2022-08-19T09:00:27;23.50;1.00
47384;DHT22;33129;52.232;5.192;2022-08-19T09:02:57;23.40;1.00
47384;DHT22;33129;52.232;5.192;2022-08-19T09:05:45;23.40;1.00
47384;DHT22;33129;52.232;5.192;2022-08-19T09:08:38;23.30;1.00
47384;DHT22;33129;52.232;5.192;2022-08-19T09:11:15;23.40;1.00
47384;DHT22;33129;52.232;5.192;2022-08-19T09:13:58;23.50;1.00
47384;DHT22;33129;52.232;5.192;2022-08-19T09:16:33;23.60;1.00
47384;DHT22;33129;52.232;5.192;2022-08-19T09:19:04;23.60;1.00
47384;DHT22;33129;52.232;5.192;2022-08-19T09:21:32;23.80;1.00
47384;DHT22;33129;52.232;5.192;2022-08-19T09:23:58;24.60;1.00
47384;DHT22;33129;52.232;5.192;2022-08-19T09:26:24;24.90;99.90
47384;DHT22;33129;52.232;5.192;2022-08-19T09:28:52;25.00;99.90
47384;DHT22;33129;52.232;5.192;2022-08-19T09:31:22;25.20;99.90
47384;DHT22;33129;52.232;5.192;2022-08-19T09:33:50;25.40;99.90
47384;DHT22;33129;52.232;5.192;2022-08-19T09:36:19;25.20;99.90
47384;DHT22;33129;52.232;5.192;2022-08-19T09:38:47;25.10;99.90
47384;DHT22;33129;52.232;5.192;2022-08-19T09:41:17;24.80;99.90
47384;DHT22;33129;52.232;5.192;2022-08-19T09:43:47;24.80;99.90
47384;DHT22;33129;52.232;5.192;2022-08-19T09:46:18;24.70;99.90
47384;DHT22;33129;52.232;5.192;2022-08-19T09:48:46;25.20;99.90
47384;DHT22;33129;52.232;5.192;2022-08-19T09:51:17;25.90;99.90
47384;DHT22;33129;52.232;5.192;2022-08-19T09:53:48;26.20;99.90
47384;DHT22;33129;52.232;5.192;2022-08-19T09:56:17;26.10;99.90
47384;DHT22;33129;52.232;5.192;2022-08-19T09:58:44;26.20;99.90
47384;DHT22;33129;52.232;5.192;2022-08-19T10:01:17;26.30;99.90
47384;DHT22;33129;52.232;5.192;2022-08-19T10:03:53;26.30;99.90
47384;DHT22;33129;52.232;5.192;2022-08-19T10:06:21;26.70;99.90
47384;DHT22;33129;52.232;5.192;2022-08-19T10:08:49;27.30;99.90
47384;DHT22;33129;52.232;5.192;2022-08-19T10:11:18;27.20;99.90
47384;DHT22;33129;52.232;5.192;2022-08-19T10:13:45;27.40;99.90
47384;DHT22;33129;52.232;5.192;2022-08-19T10:16:16;28.00;99.90
47384;DHT22;33129;52.232;5.192;2022-08-19T10:18:45;28.30;99.90
47384;DHT22;33129;52.232;5.192;2022-08-19T10:21:20;28.50;99.90
47384;DHT22;33129;52.232;5.192;2022-08-19T10:23:49;28.60;99.90
47384;DHT22;33129;52.232;5.192;2022-08-19T10:26:20;28.60;99.90
47384;DHT22;33129;52.232;5.192;2022-08-19T10:28:48;28.30;99.90
47384;DHT22;33129;52.232;5.192;2022-08-19T10:31:17;28.20;99.90
47384;DHT22;33129;52.232;5.192;2022-08-19T10:33:53;28.50;99.90
47384;DHT22;33129;52.232;5.192;2022-08-19T10:36:26;28.70;99.90
47384;DHT22;33129;52.232;5.192;2022-08-19T10:38:56;28.40;99.90
47384;DHT22;33129;52.232;5.192;2022-08-19T10:41:27;28.20;99.90
47384;DHT22;33129;52.232;5.192;2022-08-19T10:43:57;28.30;99.90
47384;DHT22;33129;52.232;5.192;2022-08-19T10:46:27;28.20;99.90
47384;DHT22;33129;52.232;5.192;2022-08-19T10:48:54;27.60;99.90
47384;DHT22;33129;52.232;5.192;2022-08-19T10:51:20;28.10;99.90
47384;DHT22;33129;52.232;5.192;2022-08-19T10:54:05;28.50;99.90
47384;DHT22;33129;52.232;5.192;2022-08-19T10:56:32;28.60;99.90
47384;DHT22;33129;52.232;5.192;2022-08-19T10:59:22;28.40;99.90
47384;DHT22;33129;52.232;5.192;2022-08-19T11:01:50;28.10;99.90
47384;DHT22;33129;52.232;5.192;2022-08-19T11:04:18;28.20;99.90
47384;DHT22;33129;52.232;5.192;2022-08-19T11:06:46;27.90;99.90
47384;DHT22;33129;52.232;5.192;2022-08-19T11:09:15;27.80;99.90
47384;DHT22;33129;52.232;5.192;2022-08-19T11:11:43;28.20;99.90
47384;DHT22;33129;52.232;5.192;2022-08-19T11:14:13;28.60;99.90
47384;DHT22;33129;52.232;5.192;2022-08-19T11:16:41;28.70;99.90
47384;DHT22;33129;52.232;5.192;2022-08-19T11:19:08;28.60;99.90
47384;DHT22;33129;52.232;5.192;2022-08-19T11:21:38;28.50;99.90
47384;DHT22;33129;52.232;5.192;2022-08-19T11:24:10;28.70;99.90
47384;DHT22;33129;52.232;5.192;2022-08-19T11:26:40;28.80;99.90
47384;DHT22;33129;52.232;5.192;2022-08-19T11:29:08;28.80;99.90
47384;DHT22;33129;52.232;5.192;2022-08-19T11:31:36;28.60;99.90
47384;DHT22;33129;52.232;5.192;2022-08-19T11:34:05;28.40;99.90
47384;DHT22;33129;52.232;5.192;2022-08-19T11:36:33;28.20;99.90
47384;DHT22;33129;52.232;5.192;2022-08-19T11:39:00;27.90;99.90
47384;DHT22;33129;52.232;5.192;2022-08-19T11:41:26;27.80;99.90
47384;DHT22;33129;52.232;5.192;2022-08-19T11:43:53;27.60;99.90
47384;DHT22;33129;52.232;5.192;2022-08-19T11:46:21;27.30;99.90
47384;DHT22;33129;52.232;5.192;2022-08-19T11:48:49;27.30;99.90
47384;DHT22;33129;52.232;5.192;2022-08-19T11:51:21;27.30;99.90
47384;DHT22;33129;52.232;5.192;2022-08-19T11:53:48;27.30;99.90
47384;DHT22;33129;52.232;5.192;2022-08-19T11:56:15;27.20;99.90
47384;DHT22;33129;52.232;5.192;2022-08-19T11:58:40;27.10;99.90
47384;DHT22;33129;52.232;5.192;2022-08-19T12:01:17;26.80;99.90
47384;DHT22;33129;52.232;5.192;2022-08-19T12:03:45;26.40;99.90
47384;DHT22;33129;52.232;5.192;2022-08-19T12:06:15;26.30;99.90
47384;DHT22;33129;52.232;5.192;2022-08-19T12:08:46;26.40;99.90
47384;DHT22;33129;52.232;5.192;2022-08-19T12:11:13;26.30;99.90
47384;DHT22;33129;52.232;5.192;2022-08-19T12:13:40;26.40;99.90
47384;DHT22;33129;52.232;5.192;2022-08-19T12:16:15;26.40;99.90
47384;DHT22;33129;52.232;5.192;2022-08-19T12:18:43;26.40;99.90
47384;DHT22;33129;52.232;5.192;2022-08-19T12:21:10;26.30;99.90
47384;DHT22;33129;52.232;5.192;2022-08-19T12:23:36;26.30;99.90
47384;DHT22;33129;52.232;5.192;2022-08-19T12:26:03;26.40;99.90
47384;DHT22;33129;52.232;5.192;2022-08-19T12:28:30;26.40;99.90
47384;DHT22;33129;52.232;5.192;2022-08-19T12:30:56;26.20;99.90
47384;DHT22;33129;52.232;5.192;2022-08-19T12:33:22;26.30;99.90
47384;DHT22;33129;52.232;5.192;2022-08-19T12:35:51;26.40;99.90
47384;DHT22;33129;52.232;5.192;2022-08-19T12:38:18;26.50;99.90
47384;DHT22;33129;52.232;5.192;2022-08-19T12:40:48;26.70;99.90
47384;DHT22;33129;52.232;5.192;2022-08-19T12:43:14;26.80;99.90
47384;DHT22;33129;52.232;5.192;2022-08-19T12:45:41;26.80;99.90
47384;DHT22;33129;52.232;5.192;2022-08-19T12:48:08;26.80;99.90
47384;DHT22;33129;52.232;5.192;2022-08-19T12:50:34;27.00;99.90
47384;DHT22;33129;52.232;5.192;2022-08-19T12:52:59;26.90;99.90
47384;DHT22;33129;52.232;5.192;2022-08-19T12:55:25;27.10;99.90
47384;DHT22;33129;52.232;5.192;2022-08-19T12:57:53;27.10;99.90
47384;DHT22;33129;52.232;5.192;2022-08-19T13:00:20;27.10;99.90
47384;DHT22;33129;52.232;5.192;2022-08-19T13:02:49;27.00;99.90
47384;DHT22;33129;52.232;5.192;2022-08-19T13:05:28;26.90;99.90
47384;DHT22;33129;52.232;5.192;2022-08-19T13:07:57;26.80;99.90
47384;DHT22;33129;52.232;5.192;2022-08-19T13:10:27;26.70;99.90
47384;DHT22;33129;52.232;5.192;2022-08-19T13:12:55;26.70;99.90
47384;DHT22;33129;52.232;5.192;2022-08-19T13:15:23;26.80;99.90
47384;DHT22;33129;52.232;5.192;2022-08-19T13:17:50;26.90;99.90
47384;DHT22;33129;52.232;5.192;2022-08-19T13:20:18;26.60;99.90
47384;DHT22;33129;52.232;5.192;2022-08-19T13:22:46;26.70;99.90
47384;DHT22;33129;52.232;5.192;2022-08-19T13:25:14;26.60;99.90
47384;DHT22;33129;52.232;5.192;2022-08-19T13:27:42;26.80;99.90
47384;DHT22;33129;52.232;5.192;2022-08-19T13:30:10;26.80;99.90
47384;DHT22;33129;52.232;5.192;2022-08-19T13:32:56;26.90;99.90
47384;DHT22;33129;52.232;5.192;2022-08-19T13:35:56;27.20;99.90
47384;DHT22;33129;52.232;5.192;2022-08-19T13:38:23;27.30;99.90
47384;DHT22;33129;52.232;5.192;2022-08-19T13:40:50;27.50;99.90
47384;DHT22;33129;52.232;5.192;2022-08-19T13:43:24;27.40;99.90
47384;DHT22;33129;52.232;5.192;2022-08-19T13:45:52;27.50;99.90
47384;DHT22;33129;52.232;5.192;2022-08-19T13:48:21;27.50;99.90
47384;DHT22;33129;52.232;5.192;2022-08-19T13:50:47;27.60;99.90
47384;DHT22;33129;52.232;5.192;2022-08-19T13:53:14;27.40;99.90
47384;DHT22;33129;52.232;5.192;2022-08-19T13:55:42;27.50;99.90
47384;DHT22;33129;52.232;5.192;2022-08-19T13:58:09;27.40;99.90
47384;DHT22;33129;52.232;5.192;2022-08-19T14:00:42;27.60;99.90
47384;DHT22;33129;52.232;5.192;2022-08-19T14:03:10;27.60;99.90
47384;DHT22;33129;52.232;5.192;2022-08-19T14:05:36;27.60;99.90
47384;DHT22;33129;52.232;5.192;2022-08-19T14:08:03;27.60;99.90
47384;DHT22;33129;52.232;5.192;2022-08-19T14:10:29;27.60;99.90
47384;DHT22;33129;52.232;5.192;2022-08-19T14:12:58;27.50;99.90
47384;DHT22;33129;52.232;5.192;2022-08-19T14:15:26;27.60;99.90
47384;DHT22;33129;52.232;5.192;2022-08-19T14:17:52;27.60;99.90
47384;DHT22;33129;52.232;5.192;2022-08-19T14:20:19;27.60;99.90
47384;DHT22;33129;52.232;5.192;2022-08-19T14:22:47;27.60;99.90
47384;DHT22;33129;52.232;5.192;2022-08-19T14:25:17;27.60;99.90
47384;DHT22;33129;52.232;5.192;2022-08-19T14:27:44;27.50;99.90
47384;DHT22;33129;52.232;5.192;2022-08-19T14:30:12;27.50;99.90
47384;DHT22;33129;52.232;5.192;2022-08-19T14:32:39;27.60;99.90
47384;DHT22;33129;52.232;5.192;2022-08-19T14:35:06;27.40;99.90
47384;DHT22;33129;52.232;5.192;2022-08-19T14:37:33;27.40;99.90
47384;DHT22;33129;52.232;5.192;2022-08-19T14:40:00;27.50;99.90
47384;DHT22;33129;52.232;5.192;2022-08-19T14:42:26;27.50;99.90
47384;DHT22;33129;52.232;5.192;2022-08-19T14:44:52;27.60;99.90
47384;DHT22;33129;52.232;5.192;2022-08-19T14:47:18;27.70;99.90
47384;DHT22;33129;52.232;5.192;2022-08-19T14:49:43;27.80;99.90
47384;DHT22;33129;52.232;5.192;2022-08-19T14:52:09;27.80;99.90
47384;DHT22;33129;52.232;5.192;2022-08-19T14:54:35;27.80;99.90
47384;DHT22;33129;52.232;5.192;2022-08-19T14:57:01;27.60;99.90
47384;DHT22;33129;52.232;5.192;2022-08-19T14:59:26;27.50;99.90
47384;DHT22;33129;52.232;5.192;2022-08-19T15:01:52;27.30;99.90
47384;DHT22;33129;52.232;5.192;2022-08-19T15:04:18;27.50;99.90
47384;DHT22;33129;52.232;5.192;2022-08-19T15:06:44;27.50;99.90
47384;DHT22;33129;52.232;5.192;2022-08-19T15:09:09;27.40;99.90
47384;DHT22;33129;52.232;5.192;2022-08-19T15:11:36;27.40;99.90
47384;DHT22;33129;52.232;5.192;2022-08-19T15:14:03;27.40;99.90
47384;DHT22;33129;52.232;5.192;2022-08-19T15:16:30;27.40;99.90
47384;DHT22;33129;52.232;5.192;2022-08-19T15:18:58;27.30;99.90
47384;DHT22;33129;52.232;5.192;2022-08-19T15:21:25;27.10;99.90
47384;DHT22;33129;52.232;5.192;2022-08-19T15:23:53;27.00;99.90
47384;DHT22;33129;52.232;5.192;2022-08-19T15:26:20;26.80;99.90
47384;DHT22;33129;52.232;5.192;2022-08-19T15:28:46;26.70;99.90
47384;DHT22;33129;52.232;5.192;2022-08-19T15:31:15;26.80;99.90
47384;DHT22;33129;52.232;5.192;2022-08-19T15:33:42;26.90;99.90
47384;DHT22;33129;52.232;5.192;2022-08-19T15:36:10;26.70;99.90
47384;DHT22;33129;52.232;5.192;2022-08-19T15:38:39;26.50;99.90
47384;DHT22;33129;52.232;5.192;2022-08-19T15:41:20;26.60;99.90
47384;DHT22;33129;52.232;5.192;2022-08-19T15:43:58;26.50;99.90
47384;DHT22;33129;52.232;5.192;2022-08-19T15:46:30;26.50;99.90
47384;DHT22;33129;52.232;5.192;2022-08-19T15:48:58;26.70;99.90
47384;DHT22;33129;52.232;5.192;2022-08-19T15:51:25;26.70;99.90
47384;DHT22;33129;52.232;5.192;2022-08-19T15:53:52;26.40;99.90
47384;DHT22;33129;52.232;5.192;2022-08-19T15:56:19;26.00;99.90